Time;durP1;ratioP1;P1;durP2;ratioP2;P2;SDS_P1;SDS_P2;PMS_P1;PMS_P2;Temp;Humidity;BMP_temperature;BMP_pressure;BME280_temperature;BME280_humidity;BME280_pressure;Samples;Min_cycle;Max_cycle;Signal;HPM_P1;HPM_P2
2022/03/24 00:00:23;;;;;;;42.83;17.37;;;5.10;99.90;;;;;;4337199;28;658832;-63
2022/03/24 00:03:10;;;;;;;44.90;18.10;;;5.10;99.90;;;;;;4317762;28;658192;-63
2022/03/24 00:05:59;;;;;;;43.10;18.13;;;5.00;99.90;;;;;;4334677;28;658788;-63
2022/03/24 00:08:47;;;;;;;52.70;19.67;;;4.90;99.90;;;;;;4317991;28;658521;-63
2022/03/24 00:11:34;;;;;;;55.50;22.13;;;4.90;99.90;;;;;;4344844;28;657277;-63
2022/03/24 00:14:22;;;;;;;56.07;22.23;;;4.80;99.90;;;;;;4327949;28;658774;-63
2022/03/24 00:17:10;;;;;;;54.67;20.85;;;4.70;99.90;;;;;;4348630;28;657125;-63
2022/03/24 00:19:58;;;;;;;51.50;21.50;;;4.60;99.90;;;;;;4324131;28;658466;-63
2022/03/24 00:22:47;;;;;;;50.97;19.88;;;4.40;99.90;;;;;;4341006;28;657504;-63
2022/03/24 00:25:34;;;;;;;45.30;18.57;;;4.30;99.90;;;;;;4353719;28;657691;-63
2022/03/24 00:28:22;;;;;;;45.20;16.90;;;4.20;99.90;;;;;;4330672;28;658443;-63
2022/03/24 00:31:09;;;;;;;48.80;17.40;;;4.10;99.90;;;;;;4349440;28;658310;-63
2022/03/24 00:33:57;;;;;;;46.03;17.03;;;4.00;99.90;;;;;;4330070;28;659382;-63
2022/03/24 00:36:44;;;;;;;43.60;17.60;;;4.00;99.90;;;;;;4354605;28;658149;-63
2022/03/24 00:39:34;;;;;;;43.67;17.23;;;3.90;99.90;;;;;;4330236;28;657863;-63
2022/03/24 00:42:22;;;;;;;46.57;17.80;;;3.90;99.90;;;;;;4329692;28;657750;-63
2022/03/24 00:45:10;;;;;;;45.83;17.67;;;3.90;99.90;;;;;;4353183;28;657090;-63
2022/03/24 00:47:57;;;;;;;59.03;21.03;;;4.00;99.90;;;;;;4317898;28;658357;-63
2022/03/24 00:50:44;;;;;;;59.40;21.83;;;3.90;99.90;;;;;;4345002;28;657303;-63
2022/03/24 00:53:32;;;;;;;61.50;22.90;;;3.80;1.00;;;;;;4329393;28;658579;-63
2022/03/24 00:56:21;;;;;;;61.55;22.83;;;3.60;99.90;;;;;;4352368;28;656631;-63
2022/03/24 00:59:09;;;;;;;55.90;21.37;;;3.60;99.90;;;;;;4325612;28;658833;-63
2022/03/24 01:01:56;;;;;;;49.03;18.27;;;3.60;99.90;;;;;;4330908;28;659210;-63
2022/03/24 01:04:43;;;;;;;44.57;18.80;;;3.50;99.90;;;;;;4350071;28;658935;-63
2022/03/24 01:07:31;;;;;;;53.50;17.70;;;3.40;99.90;;;;;;4329988;28;657562;-63
2022/03/24 01:10:19;;;;;;;52.57;18.10;;;3.30;99.90;;;;;;4349903;28;657957;-63
2022/03/24 01:13:09;;;;;;;48.30;18.80;;;3.30;99.90;;;;;;4330347;28;657503;-63
2022/03/24 01:15:56;;;;;;;43.93;18.07;;;3.30;99.90;;;;;;4337027;28;658261;-63
2022/03/24 01:18:44;;;;;;;47.27;17.37;;;3.40;99.90;;;;;;4345223;28;658803;-63
2022/03/24 01:21:33;;;;;;;43.10;17.17;;;3.40;99.90;;;;;;4326629;28;660087;-63
2022/03/24 01:24:20;;;;;;;45.33;17.30;;;3.40;99.90;;;;;;4338755;28;658085;-63
2022/03/24 01:27:10;;;;;;;53.17;16.97;;;3.40;99.90;;;;;;4348430;28;658292;-63
2022/03/24 01:29:59;;;;;;;45.40;16.67;;;3.30;99.90;;;;;;4319206;28;659041;-63
2022/03/24 01:32:47;;;;;;;42.57;16.80;;;3.30;99.90;;;;;;4327256;28;658476;-63
2022/03/24 01:35:34;;;;;;;42.33;16.30;;;3.30;99.90;;;;;;4347282;28;658919;-63
2022/03/24 01:38:23;;;;;;;46.17;16.30;;;3.30;99.90;;;;;;4331605;28;658151;-63
2022/03/24 01:41:11;;;;;;;40.80;16.80;;;3.30;99.90;;;;;;4329858;28;657917;-63
2022/03/24 01:43:59;;;;;;;45.50;18.10;;;3.40;99.90;;;;;;4352588;28;658279;-63
2022/03/24 01:47:01;;;;;;;45.30;17.67;;;3.40;99.90;;;;;;4325666;28;657368;-63
2022/03/24 01:49:50;;;;;;;41.67;16.73;;;3.40;1.00;;;;;;4326015;28;657768;-63
2022/03/24 01:52:37;;;;;;;43.43;17.53;;;3.30;1.00;;;;;;4329846;28;657169;-63
2022/03/24 01:55:25;;;;;;;43.37;16.67;;;3.20;1.00;;;;;;4344748;28;657119;-64
2022/03/24 01:58:13;;;;;;;43.80;17.23;;;3.20;1.00;;;;;;4350641;28;657575;-63
2022/03/24 02:01:26;;;;;;;48.80;17.77;;;3.10;1.00;;;;;;4332794;28;656428;-63
2022/03/24 02:04:15;;;;;;;39.23;16.57;;;3.00;1.00;;;;;;4326196;28;657024;-63
2022/03/24 02:07:02;;;;;;;42.40;17.87;;;2.90;1.00;;;;;;4330149;28;657867;-63
2022/03/24 02:09:50;;;;;;;46.03;17.00;;;2.80;1.00;;;;;;4348300;28;656642;-63
2022/03/24 02:12:37;;;;;;;40.70;17.67;;;2.80;1.00;;;;;;4329823;28;657044;-63
2022/03/24 02:15:26;;;;;;;42.50;18.40;;;2.80;1.00;;;;;;4347807;28;657061;-64
2022/03/24 02:18:13;;;;;;;44.77;17.53;;;2.70;1.00;;;;;;4358213;28;657424;-63
2022/03/24 02:21:02;;;;;;;47.13;18.80;;;2.60;1.00;;;;;;4331686;28;656547;-64
2022/03/24 02:23:51;;;;;;;44.03;17.37;;;2.60;1.00;;;;;;4352286;28;656787;-63
2022/03/24 02:26:40;;;;;;;50.45;17.35;;;2.50;1.00;;;;;;4326619;28;657349;-63
2022/03/24 02:29:28;;;;;;;42.67;18.43;;;2.50;1.00;;;;;;4326687;28;657145;-63
2022/03/24 02:32:18;;;;;;;45.20;18.27;;;2.50;1.00;;;;;;4329448;28;656832;-63
2022/03/24 02:35:06;;;;;;;55.55;18.15;;;2.50;1.00;;;;;;4330356;28;658485;-63
2022/03/24 02:37:53;;;;;;;51.20;20.17;;;2.50;1.00;;;;;;4345617;28;658395;-63
2022/03/24 02:40:43;;;;;;;48.87;18.93;;;2.50;1.00;;;;;;4330928;28;656495;-63
2022/03/24 02:43:31;;;;;;;48.27;19.77;;;2.50;1.00;;;;;;4332640;28;657104;-63
2022/03/24 02:46:19;;;;;;;50.50;20.52;;;2.50;1.00;;;;;;4349671;28;659065;-63
2022/03/24 02:49:06;;;;;;;53.20;20.63;;;2.60;1.00;;;;;;4331952;28;657434;-63
2022/03/24 02:51:54;;;;;;;51.27;20.40;;;2.60;1.00;;;;;;4347805;28;657165;-63
2022/03/24 02:54:42;;;;;;;45.87;20.13;;;2.70;1.00;;;;;;4321219;28;656702;-63
2022/03/24 02:57:31;;;;;;;50.73;19.80;;;2.60;1.00;;;;;;4350899;28;656437;-63
2022/03/24 03:00:18;;;;;;;47.47;19.97;;;2.70;1.00;;;;;;4329319;28;657622;-63
2022/03/24 03:03:06;;;;;;;45.43;20.10;;;2.80;1.00;;;;;;4331297;28;656903;-64
2022/03/24 03:05:54;;;;;;;49.23;20.03;;;2.80;1.00;;;;;;4355024;28;657022;-63
2022/03/24 03:08:42;;;;;;;40.93;18.73;;;2.90;1.00;;;;;;4333243;28;656715;-63
2022/03/24 03:11:30;;;;;;;40.67;18.37;;;2.90;1.00;;;;;;4351967;28;656740;-63
2022/03/24 03:14:19;;;;;;;41.28;17.90;;;2.90;1.00;;;;;;4329215;28;656849;-63
2022/03/24 03:17:07;;;;;;;44.10;19.05;;;2.90;1.00;;;;;;4329864;28;656934;-63
2022/03/24 03:19:54;;;;;;;40.20;17.53;;;3.00;1.00;;;;;;4356035;28;656439;-63
2022/03/24 03:22:42;;;;;;;47.37;18.23;;;3.10;1.00;;;;;;4330233;28;657012;-64
2022/03/24 03:25:29;;;;;;;45.33;18.57;;;3.20;1.00;;;;;;4346403;28;656505;-63
2022/03/24 03:28:16;;;;;;;40.90;17.63;;;3.20;1.00;;;;;;4326409;28;656585;-64
2022/03/24 03:31:05;;;;;;;46.73;18.47;;;3.20;1.00;;;;;;4351314;28;657056;-63
2022/03/24 03:33:53;;;;;;;37.43;17.20;;;3.20;1.00;;;;;;4331116;28;656758;-63
2022/03/24 03:36:40;;;;;;;44.80;19.17;;;3.10;1.00;;;;;;4332674;28;656825;-64
2022/03/24 03:39:28;;;;;;;52.53;20.03;;;3.10;1.00;;;;;;4352485;28;657822;-63
2022/03/24 03:42:16;;;;;;;42.90;19.70;;;3.10;1.00;;;;;;4331504;28;656456;-63
2022/03/24 03:45:03;;;;;;;50.90;18.77;;;3.20;1.00;;;;;;4351806;28;657056;-63
2022/03/24 03:47:52;;;;;;;47.60;18.67;;;3.10;1.00;;;;;;4328877;28;656658;-64
2022/03/24 03:50:41;;;;;;;43.23;18.73;;;3.00;1.00;;;;;;4345359;28;656950;-63
2022/03/24 03:53:29;;;;;;;43.90;18.50;;;3.00;1.00;;;;;;4329805;28;657159;-63
2022/03/24 03:56:16;;;;;;;43.93;18.07;;;3.10;1.00;;;;;;4330401;28;657204;-64
2022/03/24 03:59:04;;;;;;;43.70;18.30;;;3.10;1.00;;;;;;4345948;28;657650;-64
2022/03/24 04:01:52;;;;;;;41.70;17.23;;;3.20;1.00;;;;;;4326121;28;656271;-63
2022/03/24 04:04:41;;;;;;;40.07;17.37;;;3.20;1.00;;;;;;4348855;28;656635;-63
2022/03/24 04:07:29;;;;;;;33.92;15.50;;;3.20;1.00;;;;;;4321136;28;657059;-63
2022/03/24 04:10:16;;;;;;;35.00;15.50;;;3.30;1.00;;;;;;4329237;28;657272;-63
2022/03/24 04:13:04;;;;;;;43.53;16.87;;;3.30;1.00;;;;;;4323718;28;657124;-64
2022/03/24 04:15:53;;;;;;;41.37;16.13;;;3.30;1.00;;;;;;4325993;28;656920;-63
2022/03/24 04:18:41;;;;;;;39.57;16.43;;;3.20;1.00;;;;;;4334268;28;656677;-64
2022/03/24 04:21:30;;;;;;;37.10;16.27;;;3.10;1.00;;;;;;4358571;28;657414;-63
2022/03/24 04:24:17;;;;;;;40.83;17.50;;;3.10;1.00;;;;;;4325060;28;657162;-63
2022/03/24 04:27:05;;;;;;;38.50;16.70;;;3.00;1.00;;;;;;4350075;28;656235;-63
2022/03/24 04:29:59;;;;;;;39.83;16.40;;;3.00;1.00;;;;;;4326374;28;656858;-63
2022/03/24 04:32:46;;;;;;;42.43;17.87;;;3.00;1.00;;;;;;4330521;28;656429;-64
2022/03/24 04:35:34;;;;;;;38.27;17.00;;;2.90;1.00;;;;;;4359897;28;657052;-63
2022/03/24 04:38:23;;;;;;;42.53;16.47;;;2.80;1.00;;;;;;4334887;28;656593;-64
2022/03/24 04:41:11;;;;;;;40.77;16.13;;;2.80;1.00;;;;;;4352076;28;656686;-63
2022/03/24 04:43:58;;;;;;;42.83;17.30;;;2.70;1.00;;;;;;4357393;28;657467;-64
2022/03/24 04:46:46;;;;;;;39.80;17.70;;;2.60;1.00;;;;;;4332748;28;656388;-63
2022/03/24 04:49:33;;;;;;;41.73;17.27;;;2.60;1.00;;;;;;4356761;28;657866;-63
2022/03/24 04:52:22;;;;;;;41.30;17.50;;;2.60;1.00;;;;;;4331117;28;656669;-64
2022/03/24 04:55:11;;;;;;;45.97;18.37;;;2.60;1.00;;;;;;4349420;28;656859;-64
2022/03/24 04:57:58;;;;;;;45.63;17.87;;;2.50;1.00;;;;;;4326083;28;657482;-63
2022/03/24 05:00:46;;;;;;;42.80;17.67;;;2.60;1.00;;;;;;4333402;28;657802;-64
2022/03/24 05:03:33;;;;;;;40.57;17.53;;;2.50;1.00;;;;;;4350556;28;656279;-63
2022/03/24 05:06:21;;;;;;;40.83;17.17;;;2.60;1.00;;;;;;4333021;28;656392;-63
2022/03/24 05:09:08;;;;;;;37.63;17.00;;;2.50;1.00;;;;;;4352866;28;656319;-63
2022/03/24 05:11:57;;;;;;;42.60;18.17;;;2.50;1.00;;;;;;4335586;28;657144;-64
2022/03/24 05:14:45;;;;;;;41.40;18.50;;;2.60;1.00;;;;;;4352210;28;656390;-63
2022/03/24 05:17:32;;;;;;;45.13;17.88;;;2.60;1.00;;;;;;4327407;28;657522;-63
2022/03/24 05:20:20;;;;;;;43.03;18.07;;;2.70;1.00;;;;;;4349928;28;656485;-63
2022/03/24 05:23:08;;;;;;;50.80;19.90;;;2.70;1.00;;;;;;4352324;28;657577;-63
2022/03/24 05:25:55;;;;;;;50.13;20.37;;;2.80;1.00;;;;;;4329840;28;656262;-63
2022/03/24 05:28:45;;;;;;;54.20;20.53;;;2.90;1.00;;;;;;4347008;28;657524;-63
2022/03/24 05:31:32;;;;;;;59.97;22.37;;;3.00;1.00;;;;;;4328273;28;659787;-64
2022/03/24 05:34:20;;;;;;;52.53;21.93;;;3.20;1.00;;;;;;4354505;28;656202;-64
2022/03/24 05:37:07;;;;;;;63.87;23.47;;;3.30;1.00;;;;;;4325748;28;657373;-63
2022/03/24 05:39:55;;;;;;;65.27;23.93;;;3.50;1.00;;;;;;4346160;28;657014;-64
2022/03/24 05:42:43;;;;;;;55.13;24.30;;;3.70;1.00;;;;;;4350499;28;657691;-64
2022/03/24 05:45:32;;;;;;;61.67;25.00;;;3.80;1.00;;;;;;4336289;28;657015;-64
2022/03/24 05:48:19;;;;;;;64.30;24.90;;;4.00;1.00;;;;;;4348450;28;656253;-64
2022/03/24 05:51:07;;;;;;;53.57;23.33;;;4.10;1.00;;;;;;4329688;28;656936;-64
2022/03/24 05:53:54;;;;;;;62.50;22.33;;;4.30;1.00;;;;;;4349465;28;656404;-63
2022/03/24 05:56:42;;;;;;;53.90;22.33;;;4.50;1.00;;;;;;4332282;28;656240;-64
2022/03/24 05:59:29;;;;;;;56.78;21.52;;;4.70;1.00;;;;;;4350136;28;656889;-64
2022/03/24 06:02:20;;;;;;;56.73;22.27;;;4.90;1.00;;;;;;4328319;28;657326;-64
2022/03/24 06:05:09;;;;;;;51.40;21.60;;;5.10;1.00;;;;;;4330914;28;658028;-64
2022/03/24 06:08:00;;;;;;;53.97;21.53;;;5.30;1.00;;;;;;4330162;28;656858;-64
2022/03/24 06:10:48;;;;;;;51.03;21.45;;;5.50;1.00;;;;;;4326371;28;658625;-64
2022/03/24 06:13:36;;;;;;;53.40;21.57;;;5.70;1.00;;;;;;4331089;28;656508;-64
2022/03/24 06:16:24;;;;;;;52.00;22.47;;;5.80;1.00;;;;;;4349328;28;657973;-64
2022/03/24 06:19:14;;;;;;;53.37;20.83;;;6.10;1.00;;;;;;4332817;28;656886;-64
2022/03/24 06:22:02;;;;;;;51.60;22.00;;;6.30;1.00;;;;;;4327203;28;656200;-63
2022/03/24 06:24:49;;;;;;;56.53;21.17;;;6.50;1.00;;;;;;4345965;28;656334;-64
2022/03/24 06:27:37;;;;;;;49.60;21.47;;;6.60;1.00;;;;;;4326385;28;657569;-63
2022/03/24 06:30:25;;;;;;;45.93;21.77;;;6.80;1.00;;;;;;4354765;28;657329;-64
2022/03/24 06:33:13;;;;;;;52.93;22.20;;;7.00;1.00;;;;;;4326410;28;657534;-64
2022/03/24 06:36:02;;;;;;;51.17;21.67;;;7.10;1.00;;;;;;4331643;28;656420;-64
2022/03/24 06:38:50;;;;;;;48.50;22.80;;;7.30;1.00;;;;;;4353510;28;656605;-63
2022/03/24 06:41:37;;;;;;;44.07;20.37;;;7.40;1.00;;;;;;4322295;28;657526;-63
2022/03/24 06:44:25;;;;;;;50.63;23.27;;;7.50;1.00;;;;;;4351799;28;658126;-63
2022/03/24 06:47:13;;;;;;;54.17;23.43;;;7.60;1.00;;;;;;4324246;28;657249;-63
2022/03/24 06:50:01;;;;;;;56.10;24.60;;;7.80;1.00;;;;;;4338317;28;656927;-64
2022/03/24 06:52:50;;;;;;;99.60;32.27;;;8.00;1.00;;;;;;4350999;28;657744;-64
2022/03/24 06:55:38;;;;;;;55.00;24.27;;;8.10;1.00;;;;;;4322415;28;657929;-64
2022/03/24 06:58:26;;;;;;;58.00;24.70;;;8.30;1.00;;;;;;4330108;28;657271;-64
2022/03/24 07:01:14;;;;;;;48.95;23.88;;;8.50;1.00;;;;;;4348655;28;657138;-64
2022/03/24 07:04:01;;;;;;;57.27;24.57;;;8.60;1.00;;;;;;4327627;28;657065;-64
2022/03/24 07:06:49;;;;;;;50.67;24.93;;;8.80;1.00;;;;;;4348133;28;656983;-63
2022/03/24 07:09:38;;;;;;;54.47;25.30;;;9.00;1.00;;;;;;4329853;28;656624;-64
2022/03/24 07:12:26;;;;;;;59.53;25.33;;;9.10;1.00;;;;;;4334462;28;656442;-64
2022/03/24 07:15:14;;;;;;;49.73;21.70;;;9.30;1.00;;;;;;4345042;28;657257;-64
2022/03/24 07:18:01;;;;;;;55.40;24.13;;;9.40;1.00;;;;;;4328541;28;656580;-64
2022/03/24 07:20:49;;;;;;;51.27;24.60;;;9.60;1.00;;;;;;4349592;28;656575;-64
2022/03/24 07:23:36;;;;;;;52.60;24.83;;;9.80;1.00;;;;;;4331025;28;656884;-63
2022/03/24 07:26:25;;;;;;;58.07;24.30;;;9.90;1.00;;;;;;4351646;28;657365;-64
2022/03/24 07:29:13;;;;;;;55.20;25.90;;;10.00;1.00;;;;;;4325263;28;657264;-64
2022/03/24 07:32:01;;;;;;;56.73;24.27;;;10.00;1.00;;;;;;4332288;28;657533;-64
2022/03/24 07:34:48;;;;;;;51.87;25.23;;;10.10;1.00;;;;;;4352333;28;658019;-64
2022/03/24 07:37:36;;;;;;;56.97;24.53;;;10.20;1.00;;;;;;4333065;28;657311;-64
2022/03/24 07:40:24;;;;;;;54.77;26.17;;;10.40;1.00;;;;;;4353012;28;658597;-64
2022/03/24 07:43:13;;;;;;;60.10;26.70;;;10.50;1.00;;;;;;4330345;28;657261;-64
2022/03/24 07:46:01;;;;;;;55.03;25.80;;;10.60;1.00;;;;;;4330733;28;658118;-64
2022/03/24 07:48:49;;;;;;;55.33;25.63;;;10.80;1.00;;;;;;4343181;28;658101;-64
2022/03/24 07:51:36;;;;;;;51.53;25.10;;;11.00;1.00;;;;;;4335786;28;657658;-64
2022/03/24 07:54:46;;;;;;;58.17;25.73;;;11.00;1.00;;;;;;4354488;28;657923;-64
2022/03/24 07:57:34;;;;;;;58.57;26.50;;;11.10;1.00;;;;;;4327212;28;657911;-64
2022/03/24 08:00:22;;;;;;;50.37;25.67;;;11.40;1.00;;;;;;4332567;28;657356;-64
2022/03/24 08:03:10;;;;;;;58.93;26.10;;;11.50;1.00;;;;;;4342817;28;657939;-64
2022/03/24 08:05:58;;;;;;;55.53;25.90;;;11.40;1.00;;;;;;4357908;28;658598;-64
2022/03/24 08:08:45;;;;;;;57.33;24.80;;;11.60;1.00;;;;;;4331648;28;657346;-64
2022/03/24 08:11:33;;;;;;;51.33;25.13;;;11.80;1.00;;;;;;4346532;28;658393;-64
2022/03/24 08:14:21;;;;;;;46.60;23.60;;;12.00;1.00;;;;;;4333330;28;657452;-64
2022/03/24 08:17:09;;;;;;;52.97;25.47;;;12.20;1.00;;;;;;4348237;28;658826;-64
2022/03/24 08:19:57;;;;;;;54.17;25.97;;;12.30;1.00;;;;;;4332405;28;657773;-64
2022/03/24 08:22:45;;;;;;;45.70;22.80;;;12.50;1.00;;;;;;4344857;28;657314;-64
2022/03/24 08:25:32;;;;;;;57.33;26.10;;;12.70;99.90;;;;;;4331169;28;658753;-64
2022/03/24 08:28:21;;;;;;;55.80;26.23;;;12.70;99.90;;;;;;4343279;28;658827;-64
2022/03/24 08:31:08;;;;;;;55.30;25.57;;;12.80;99.90;;;;;;4346332;28;659295;-64
2022/03/24 08:33:57;;;;;;;54.37;24.70;;;13.10;99.90;;;;;;4326168;28;658549;-64
2022/03/24 08:36:45;;;;;;;51.57;23.90;;;13.20;99.90;;;;;;4343349;28;661559;-64
2022/03/24 08:39:32;;;;;;;51.50;26.00;;;13.40;99.90;;;;;;4322265;28;659484;-64
2022/03/24 08:42:20;;;;;;;54.73;25.33;;;13.50;99.90;;;;;;4342160;28;659272;-64
2022/03/24 08:45:09;;;;;;;46.37;24.10;;;13.70;99.90;;;;;;4325668;28;659600;-64
2022/03/24 08:47:56;;;;;;;50.63;24.97;;;13.90;99.90;;;;;;4325941;28;658351;-64
2022/03/24 08:50:45;;;;;;;52.47;25.73;;;14.10;99.90;;;;;;4346096;28;658983;-64
2022/03/24 08:53:36;;;;;;;50.53;26.13;;;14.20;99.90;;;;;;4322720;28;660105;-64
2022/03/24 08:56:24;;;;;;;56.27;24.53;;;13.90;99.90;;;;;;4331852;28;659364;-65
2022/03/24 08:59:12;;;;;;;49.10;23.23;;;13.90;99.90;;;;;;4335482;28;658510;-64
2022/03/24 09:01:59;;;;;;;52.57;25.10;;;14.10;99.90;;;;;;4355262;28;659561;-64
2022/03/24 09:04:48;;;;;;;46.33;23.87;;;14.20;99.90;;;;;;4331875;28;659023;-64
2022/03/24 09:07:37;;;;;;;46.15;24.25;;;14.40;99.90;;;;;;4349220;28;658393;-64
2022/03/24 09:10:24;;;;;;;54.33;25.83;;;14.60;99.90;;;;;;4346883;28;658702;-64
2022/03/24 09:13:12;;;;;;;48.90;24.87;;;14.70;99.90;;;;;;4330772;28;659867;-64
2022/03/24 09:15:59;;;;;;;51.03;25.17;;;14.80;99.90;;;;;;4345462;28;658344;-65
2022/03/24 09:18:47;;;;;;;50.57;25.03;;;15.10;99.90;;;;;;4330176;28;658771;-65
2022/03/24 09:21:35;;;;;;;50.10;25.60;;;15.30;99.90;;;;;;4348439;28;658588;-65
2022/03/24 09:24:24;;;;;;;45.73;25.03;;;15.40;99.90;;;;;;4327017;28;660266;-64
2022/03/24 09:27:11;;;;;;;47.90;23.90;;;15.40;99.90;;;;;;4331559;28;659022;-64
2022/03/24 09:29:59;;;;;;;51.37;25.17;;;15.70;99.90;;;;;;4344377;28;658297;-64
2022/03/24 09:32:47;;;;;;;50.37;25.53;;;15.90;99.90;;;;;;4330439;28;658712;-65
2022/03/24 09:35:35;;;;;;;57.53;26.20;;;16.00;99.90;;;;;;4349713;28;658971;-65
2022/03/24 09:38:24;;;;;;;51.03;26.00;;;16.20;99.90;;;;;;4330717;28;659110;-64
2022/03/24 09:41:13;;;;;;;49.37;26.10;;;16.50;99.90;;;;;;4326171;28;658392;-64
2022/03/24 09:44:01;;;;;;;49.87;25.13;;;16.60;99.90;;;;;;4325787;28;659331;-65
2022/03/24 09:46:48;;;;;;;48.27;25.00;;;16.70;99.90;;;;;;4346822;28;659509;-64
2022/03/24 09:49:36;;;;;;;54.27;26.73;;;16.90;99.90;;;;;;4332859;28;658750;-65
2022/03/24 09:52:24;;;;;;;46.87;24.73;;;16.90;99.90;;;;;;4350425;28;659524;-65
2022/03/24 09:55:12;;;;;;;49.37;24.73;;;17.00;99.90;;;;;;4325810;28;660025;-65
2022/03/24 09:58:02;;;;;;;56.17;25.57;;;17.10;99.90;;;;;;4343840;28;659218;-65
2022/03/24 10:00:49;;;;;;;44.73;23.80;;;17.50;99.90;;;;;;4320389;28;658649;-65
2022/03/24 10:03:37;;;;;;;47.70;24.03;;;17.80;99.90;;;;;;4329532;28;658513;-65
2022/03/24 10:06:24;;;;;;;38.80;21.30;;;17.90;99.90;;;;;;4347030;28;658101;-65
2022/03/24 10:09:11;;;;;;;43.97;22.10;;;18.00;99.90;;;;;;4325325;28;658475;-65
2022/03/24 10:11:59;;;;;;;30.63;15.67;;;18.10;99.90;;;;;;4344016;28;659107;-65
2022/03/24 10:14:59;;;;;;;37.80;15.70;;;18.30;99.90;;;;;;4326681;28;659710;-65
2022/03/24 10:17:54;;;;;;;31.97;14.97;;;18.60;99.90;;;;;;4302934;28;659063;-64
2022/03/24 10:20:41;;;;;;;31.80;15.90;;;18.50;99.90;;;;;;4330959;28;658458;-65
2022/03/24 10:23:29;;;;;;;29.17;14.97;;;18.10;99.90;;;;;;4342275;28;658803;-65
2022/03/24 10:26:16;;;;;;;23.73;13.27;;;18.20;99.90;;;;;;4334284;28;658393;-64
2022/03/24 10:29:04;;;;;;;26.43;12.90;;;18.70;99.90;;;;;;4346929;28;659094;-65
2022/03/24 10:31:54;;;;;;;26.50;13.67;;;19.00;99.90;;;;;;4333114;28;658579;-65
2022/03/24 10:34:43;;;;;;;25.27;13.90;;;19.20;99.90;;;;;;4326868;28;658517;-65
2022/03/24 10:37:30;;;;;;;24.60;13.53;;;19.30;99.90;;;;;;4336637;28;658620;-65
2022/03/24 10:40:18;;;;;;;34.57;16.00;;;19.00;99.90;;;;;;4344852;28;660310;-65
2022/03/24 10:43:08;;;;;;;31.90;15.57;;;19.00;99.90;;;;;;4324371;28;659065;-65
2022/03/24 10:45:57;;;;;;;52.83;20.10;;;19.30;99.90;;;;;;4343249;28;659014;-65
2022/03/24 10:48:47;;;;;;;32.30;15.87;;;19.10;99.90;;;;;;4341564;28;659422;-65
2022/03/24 10:51:35;;;;;;;38.73;17.97;;;19.00;99.90;;;;;;4327043;28;658399;-65
2022/03/24 10:54:27;;;;;;;29.73;15.97;;;19.40;99.90;;;;;;4318828;28;660639;-65
2022/03/24 10:57:15;;;;;;;31.20;16.43;;;19.70;99.90;;;;;;4318530;28;658568;-65
2022/03/24 11:00:04;;;;;;;27.37;13.57;;;20.00;99.90;;;;;;4323158;28;659474;-65
2022/03/24 11:02:51;;;;;;;21.43;11.40;;;20.20;99.90;;;;;;4324596;28;659525;-65
2022/03/24 11:05:40;;;;;;;19.57;10.73;;;20.10;99.90;;;;;;4341537;28;659456;-65
2022/03/24 11:08:28;;;;;;;19.87;10.00;;;20.20;99.90;;;;;;4333515;28;659513;-65
2022/03/24 11:11:16;;;;;;;23.10;11.33;;;20.40;99.90;;;;;;4333579;28;659754;-65
2022/03/24 11:14:04;;;;;;;20.43;10.87;;;20.40;99.90;;;;;;4340509;28;659942;-65
2022/03/24 11:16:52;;;;;;;18.10;10.70;;;19.90;99.90;;;;;;4333256;28;659156;-65
2022/03/24 11:19:40;;;;;;;18.43;9.50;;;20.10;99.90;;;;;;4353730;28;658727;-65
2022/03/24 11:22:43;;;;;;;16.40;9.07;;;20.30;99.90;;;;;;4329081;28;659539;-65
2022/03/24 11:25:31;;;;;;;14.83;8.07;;;20.20;99.90;;;;;;4335084;28;657754;-65
2022/03/24 11:28:19;;;;;;;15.60;7.67;;;19.60;99.90;;;;;;4352598;28;658284;-65
2022/03/24 11:31:08;;;;;;;15.95;8.10;;;19.80;99.90;;;;;;4335893;28;658496;-65
2022/03/24 11:33:56;;;;;;;13.27;7.30;;;19.60;99.90;;;;;;4336942;28;657637;-65
2022/03/24 11:36:44;;;;;;;11.90;6.63;;;19.70;99.90;;;;;;4377292;28;658275;-66
2022/03/24 11:39:33;;;;;;;13.77;6.80;;;20.20;99.90;;;;;;4338972;28;657664;-66
2022/03/24 11:42:20;;;;;;;13.60;6.25;;;20.50;99.90;;;;;;4335302;28;659434;-65
2022/03/24 11:45:13;;;;;;;12.63;6.53;;;19.90;99.90;;;;;;4349497;28;658818;-65
2022/03/24 11:48:03;;;;;;;9.00;5.27;;;20.30;99.90;;;;;;4320416;28;657952;-65
2022/03/24 11:50:52;;;;;;;13.67;7.00;;;19.80;99.90;;;;;;4344631;28;656760;-65
2022/03/24 11:53:40;;;;;;;12.17;5.37;;;19.60;99.90;;;;;;4350907;28;656925;-65
2022/03/24 11:56:28;;;;;;;11.80;5.77;;;20.10;99.90;;;;;;4337277;28;657514;-65
2022/03/24 11:59:21;;;;;;;12.00;5.73;;;20.40;99.90;;;;;;4341027;28;657695;-65
2022/03/24 12:02:16;;;;;;;16.50;6.03;;;20.60;99.90;;;;;;4324966;28;659355;-65
2022/03/24 12:05:04;;;;;;;21.70;8.17;;;20.90;99.90;;;;;;4335431;28;658262;-65
2022/03/24 12:07:51;;;;;;;11.40;4.60;;;21.30;99.90;;;;;;4332843;28;657577;-65
2022/03/24 12:10:39;;;;;;;14.00;5.50;;;21.10;99.90;;;;;;4346708;28;658159;-65
2022/03/24 12:13:28;;;;;;;32.50;10.50;;;21.40;99.90;;;;;;4332601;28;657621;-65
2022/03/24 12:16:18;;;;;;;11.27;5.40;;;21.40;99.90;;;;;;4341754;28;658737;-65
2022/03/24 12:19:08;;;;;;;19.03;8.17;;;21.20;99.90;;;;;;4326930;28;658816;-65
2022/03/24 12:21:57;;;;;;;15.57;7.83;;;21.30;99.90;;;;;;4328184;28;657678;-66
2022/03/24 12:24:45;;;;;;;10.87;6.20;;;21.40;99.90;;;;;;4342845;28;658201;-65
2022/03/24 12:27:33;;;;;;;12.70;6.30;;;21.50;99.90;;;;;;4353279;28;658359;-65
2022/03/24 12:30:23;;;;;;;9.70;5.30;;;21.60;99.90;;;;;;4338952;28;658323;-65
2022/03/24 12:33:12;;;;;;;15.50;6.00;;;21.30;99.90;;;;;;4341697;28;656458;-65
2022/03/24 12:35:59;;;;;;;12.43;6.00;;;21.40;99.90;;;;;;4348028;28;657773;-66
2022/03/24 12:38:55;;;;;;;17.70;6.03;;;21.50;99.90;;;;;;4330432;28;659011;-65
2022/03/24 12:41:42;;;;;;;10.40;5.50;;;21.50;99.90;;;;;;4310703;28;658765;-65
2022/03/24 12:44:54;;;;;;;14.20;7.70;;;21.30;99.90;;;;;;4351248;28;658091;-65
2022/03/24 12:47:45;;;;;;;13.77;6.70;;;21.60;99.90;;;;;;4297930;28;657738;-65
2022/03/24 12:50:48;;;;;;;12.33;4.87;;;21.90;99.90;;;;;;4323145;28;659203;-65
2022/03/24 12:53:51;;;;;;;9.70;4.27;;;21.70;99.90;;;;;;4318508;28;657858;-65
2022/03/24 12:56:42;;;;;;;9.40;4.37;;;22.00;99.90;;;;;;4336781;28;657927;-65
2022/03/24 12:59:30;;;;;;;13.93;6.90;;;22.60;99.90;;;;;;4350745;28;656815;-65
2022/03/24 13:02:19;;;;;;;10.10;4.07;;;22.40;99.90;;;;;;4344115;28;659732;-66
2022/03/24 13:05:11;;;;;;;7.33;3.57;;;22.00;99.90;;;;;;4337762;28;657343;-65
2022/03/24 13:07:59;;;;;;;10.03;4.10;;;21.30;99.90;;;;;;4334135;28;657288;-65
2022/03/24 13:10:51;;;;;;;9.13;3.97;;;20.80;99.90;;;;;;4320794;28;658178;-65
2022/03/24 13:13:49;;;;;;;12.37;4.77;;;20.70;99.90;;;;;;4336135;28;656743;-65
2022/03/24 13:16:37;;;;;;;11.00;3.60;;;21.30;99.90;;;;;;4305630;28;659201;-65
2022/03/24 13:19:24;;;;;;;11.40;4.93;;;21.50;99.90;;;;;;4351864;28;657624;-65
2022/03/24 13:22:19;;;;;;;8.10;4.67;;;22.00;99.90;;;;;;4333967;28;658211;-65
2022/03/24 13:25:07;;;;;;;13.60;4.67;;;22.10;99.90;;;;;;4316507;28;657767;-65
2022/03/24 13:27:55;;;;;;;8.00;3.80;;;22.20;99.90;;;;;;4358483;28;657568;-64
2022/03/24 13:30:44;;;;;;;7.63;3.63;;;22.00;99.90;;;;;;4362306;28;657781;-64
2022/03/24 13:33:31;;;;;;;6.83;3.40;;;21.70;99.90;;;;;;4328108;28;656545;-65
2022/03/24 13:36:22;;;;;;;8.63;4.80;;;22.10;99.90;;;;;;4350055;28;657037;-65
2022/03/24 13:39:11;;;;;;;11.73;4.47;;;22.20;99.90;;;;;;4333119;28;656987;-65
2022/03/24 13:41:58;;;;;;;10.13;3.73;;;22.80;99.90;;;;;;4334876;28;657732;-65
2022/03/24 13:44:46;;;;;;;8.47;3.20;;;23.00;99.90;;;;;;4326415;28;658226;-65
2022/03/24 13:47:34;;;;;;;11.77;5.73;;;23.00;99.90;;;;;;4351962;28;657304;-65
2022/03/24 13:50:22;;;;;;;10.83;3.73;;;22.80;99.90;;;;;;4326999;28;657548;-65
2022/03/24 13:53:17;;;;;;;10.37;2.70;;;23.10;99.90;;;;;;4350254;28;657574;-65
2022/03/24 13:56:08;;;;;;;9.67;3.00;;;23.30;99.90;;;;;;4335879;28;657591;-65
2022/03/24 13:59:01;;;;;;;5.30;1.73;;;23.20;99.90;;;;;;4311637;28;657176;-65
2022/03/24 14:01:56;;;;;;;4.67;2.10;;;23.10;99.90;;;;;;4329755;28;656727;-65
2022/03/24 14:04:52;;;;;;;3.23;1.60;;;23.20;99.90;;;;;;4326212;28;656477;-65
2022/03/24 14:07:59;;;;;;;7.27;2.10;;;23.00;99.90;;;;;;4326905;28;656282;-65
2022/03/24 14:10:48;;;;;;;7.63;2.10;;;22.60;99.90;;;;;;4321993;28;657125;-65
2022/03/24 14:13:38;;;;;;;14.77;5.90;;;22.70;99.90;;;;;;4329043;28;656427;-65
2022/03/24 14:16:28;;;;;;;10.33;5.27;;;23.40;99.90;;;;;;4326405;28;657431;-65
2022/03/24 14:19:18;;;;;;;9.10;4.77;;;24.00;99.90;;;;;;4328818;28;657581;-65